Time;durP1;ratioP1;P1;durP2;ratioP2;P2;SDS_P1;SDS_P2;PMS_P1;PMS_P2;Temp;Humidity;BMP_temperature;BMP_pressure;BME280_temperature;BME280_humidity;BME280_pressure;Samples;Min_cycle;Max_cycle;Signal;HPM_P1;HPM_P2
2023/12/27 00:00:28;;;;;;;;;;;5.50;99.90;;;;;;5038810;28;19931;-77
2023/12/27 00:03:14;;;;;;;;;;;5.50;99.90;;;;;;5039225;28;19927;-78
2023/12/27 00:06:00;;;;;;;;;;;5.50;99.90;;;;;;5052207;28;20261;-78
2023/12/27 00:08:46;;;;;;;;;;;5.50;99.90;;;;;;5038532;28;20341;-78
2023/12/27 00:11:32;;;;;;;;;;;5.50;99.90;;;;;;5040948;28;19923;-78
2023/12/27 00:14:18;;;;;;;;;;;5.40;99.90;;;;;;5052472;28;19966;-77
2023/12/27 00:17:04;;;;;;;;;;;5.50;99.90;;;;;;5051453;28;19917;-79
2023/12/27 00:19:51;;;;;;;;;;;5.40;99.90;;;;;;5032700;28;19959;-78
2023/12/27 00:22:37;;;;;;;;;;;5.40;99.90;;;;;;5026997;28;20525;-77
2023/12/27 00:25:23;;;;;;;;;;;5.40;99.90;;;;;;5024602;28;19928;-77
2023/12/27 00:28:08;;;;;;;;;;;5.30;99.90;;;;;;5054191;28;19948;-77
2023/12/27 00:30:54;;;;;;;;;;;5.30;99.90;;;;;;5053092;28;19917;-77
2023/12/27 00:33:40;;;;;;;;;;;5.20;99.90;;;;;;5052339;28;20446;-78
2023/12/27 00:36:29;;;;;;;;;;;5.20;99.90;;;;;;5032217;28;19928;-77
2023/12/27 00:39:15;;;;;;;;;;;5.30;99.90;;;;;;5048719;28;19975;-77
2023/12/27 00:42:01;;;;;;;;;;;5.30;99.90;;;;;;5030695;28;19925;-77
2023/12/27 00:44:48;;;;;;;;;;;5.30;99.90;;;;;;5038775;28;19927;-78
2023/12/27 00:47:34;;;;;;;;;;;5.30;99.90;;;;;;5056930;28;19924;-77
2023/12/27 00:50:20;;;;;;;;;;;5.30;99.90;;;;;;5043873;28;20517;-77
2023/12/27 00:53:06;;;;;;;;;;;5.20;99.90;;;;;;5024737;28;20381;-76
2023/12/27 00:55:51;;;;;;;;;;;5.20;99.90;;;;;;5022310;28;20008;-77
2023/12/27 00:58:37;;;;;;;;;;;5.20;99.90;;;;;;5032619;28;19967;-78
2023/12/27 01:01:23;;;;;;;;;;;5.20;99.90;;;;;;5055934;28;20596;-78
2023/12/27 01:04:09;;;;;;;;;;;5.20;99.90;;;;;;5056379;28;20663;-78
2023/12/27 01:06:55;;;;;;;;;;;5.10;99.90;;;;;;5040525;28;19924;-79
2023/12/27 01:09:41;;;;;;;;;;;5.10;99.90;;;;;;5051216;28;19913;-79
2023/12/27 01:12:27;;;;;;;;;;;5.10;99.90;;;;;;5042730;28;20003;-79
2023/12/27 01:15:13;;;;;;;;;;;5.00;99.90;;;;;;5040706;28;19913;-79
2023/12/27 01:17:59;;;;;;;;;;;5.10;99.90;;;;;;5042453;28;20309;-79
2023/12/27 01:20:45;;;;;;;;;;;5.10;99.90;;;;;;5056030;28;19916;-79
2023/12/27 01:23:32;;;;;;;;;;;5.00;99.90;;;;;;5037244;28;19943;-78
2023/12/27 01:26:21;;;;;;;;;;;5.00;99.90;;;;;;5039998;28;19912;-79
2023/12/27 01:29:07;;;;;;;;;;;5.00;99.90;;;;;;5056662;28;19927;-78
2023/12/27 01:31:53;;;;;;;;;;;5.00;99.90;;;;;;5054591;28;20586;-78
2023/12/27 01:34:39;;;;;;;;;;;5.00;99.90;;;;;;5045152;28;19920;-79
2023/12/27 01:37:25;;;;;;;;;;;4.90;99.90;;;;;;5038360;28;19927;-79
2023/12/27 01:40:12;;;;;;;;;;;4.90;99.90;;;;;;5027779;28;19942;-79
2023/12/27 01:42:58;;;;;;;;;;;4.90;99.90;;;;;;5052404;28;19917;-78
2023/12/27 01:45:44;;;;;;;;;;;4.90;99.90;;;;;;5040224;28;19927;-79
2023/12/27 01:48:30;;;;;;;;;;;5.00;99.90;;;;;;5052132;28;19952;-79
2023/12/27 01:51:16;;;;;;;;;;;4.90;99.90;;;;;;5038572;28;19932;-79
2023/12/27 01:54:02;;;;;;;;;;;5.00;99.90;;;;;;5036459;28;20360;-79
2023/12/27 01:56:48;;;;;;;;;;;5.00;99.90;;;;;;5041507;28;19940;-78
2023/12/27 01:59:33;;;;;;;;;;;4.90;99.90;;;;;;5036337;28;19917;-78
2023/12/27 02:02:19;;;;;;;;;;;4.80;99.90;;;;;;5028070;28;19928;-79
2023/12/27 02:05:05;;;;;;;;;;;4.90;99.90;;;;;;5035917;28;19916;-79
2023/12/27 02:07:51;;;;;;;;;;;4.90;99.90;;;;;;5040237;28;19920;-79
2023/12/27 02:10:37;;;;;;;;;;;4.90;99.90;;;;;;5055980;28;20010;-79
2023/12/27 02:13:23;;;;;;;;;;;4.90;99.90;;;;;;5052977;28;19947;-78
2023/12/27 02:16:09;;;;;;;;;;;4.90;99.90;;;;;;5056082;28;19917;-78
2023/12/27 02:18:55;;;;;;;;;;;4.80;99.90;;;;;;5056120;28;19940;-79
2023/12/27 02:21:41;;;;;;;;;;;4.80;99.90;;;;;;5040211;28;19916;-79
2023/12/27 02:24:31;;;;;;;;;;;4.80;99.90;;;;;;5042711;28;19917;-79
2023/12/27 02:27:17;;;;;;;;;;;4.80;99.90;;;;;;5034767;28;19912;-79
2023/12/27 02:30:03;;;;;;;;;;;4.80;99.90;;;;;;5042351;28;19920;-78
2023/12/27 02:32:49;;;;;;;;;;;4.70;99.90;;;;;;5054070;28;19916;-79
2023/12/27 02:35:35;;;;;;;;;;;4.70;99.90;;;;;;5039898;28;20400;-79
2023/12/27 02:38:21;;;;;;;;;;;4.70;99.90;;;;;;5053866;28;19928;-78
2023/12/27 02:41:07;;;;;;;;;;;4.70;99.90;;;;;;5045549;28;20322;-79
2023/12/27 02:43:53;;;;;;;;;;;4.60;99.90;;;;;;5041024;28;20023;-79
2023/12/27 02:46:38;;;;;;;;;;;4.50;99.90;;;;;;5034464;28;20211;-77
2023/12/27 02:49:24;;;;;;;;;;;4.60;99.90;;;;;;5028506;28;19913;-78
2023/12/27 02:52:10;;;;;;;;;;;4.60;99.90;;;;;;5037788;28;19921;-79
2023/12/27 02:54:57;;;;;;;;;;;4.60;99.90;;;;;;5035117;28;19927;-79
2023/12/27 02:57:43;;;;;;;;;;;4.60;99.90;;;;;;5031047;28;20501;-79
2023/12/27 03:00:34;;;;;;;;;;;4.60;99.90;;;;;;5035898;28;19928;-79
2023/12/27 03:03:20;;;;;;;;;;;4.60;99.90;;;;;;5035451;28;19913;-78
2023/12/27 03:06:06;;;;;;;;;;;4.60;99.90;;;;;;5030803;28;19917;-79
2023/12/27 03:08:53;;;;;;;;;;;4.50;99.90;;;;;;5053672;28;19913;-78
2023/12/27 03:11:39;;;;;;;;;;;4.60;99.90;;;;;;5046899;28;20004;-78
2023/12/27 03:14:25;;;;;;;;;;;4.50;99.90;;;;;;5049944;28;19917;-78
2023/12/27 03:17:11;;;;;;;;;;;4.50;99.90;;;;;;5034548;28;20541;-78
2023/12/27 03:19:57;;;;;;;;;;;4.60;99.90;;;;;;5050822;28;19928;-78
2023/12/27 03:22:42;;;;;;;;;;;4.50;99.90;;;;;;5032775;28;19916;-78
2023/12/27 03:25:28;;;;;;;;;;;4.50;99.90;;;;;;5041199;28;19917;-78
2023/12/27 03:28:14;;;;;;;;;;;4.60;99.90;;;;;;5039956;28;19917;-78
2023/12/27 03:31:01;;;;;;;;;;;4.60;99.90;;;;;;5043917;28;19917;-78
2023/12/27 03:33:47;;;;;;;;;;;4.60;99.90;;;;;;5039183;28;20309;-78
2023/12/27 03:36:33;;;;;;;;;;;4.50;99.90;;;;;;5052275;28;19971;-78
2023/12/27 03:39:20;;;;;;;;;;;4.50;99.90;;;;;;5040702;28;19917;-78
2023/12/27 03:42:06;;;;;;;;;;;4.50;99.90;;;;;;5037947;28;20369;-79
2023/12/27 03:44:52;;;;;;;;;;;4.40;99.90;;;;;;5052860;28;19928;-78
2023/12/27 03:47:38;;;;;;;;;;;4.40;99.90;;;;;;5046371;28;20706;-79
2023/12/27 03:50:24;;;;;;;;;;;4.40;99.90;;;;;;5054274;28;20002;-78
2023/12/27 03:53:10;;;;;;;;;;;4.30;99.90;;;;;;5041435;28;20333;-78
2023/12/27 03:55:56;;;;;;;;;;;4.30;99.90;;;;;;5052155;28;19913;-79
2023/12/27 03:58:42;;;;;;;;;;;4.30;99.90;;;;;;5053568;28;20587;-78
2023/12/27 04:01:28;;;;;;;;;;;4.20;99.90;;;;;;5038373;28;20054;-78
2023/12/27 04:04:15;;;;;;;;;;;4.20;99.90;;;;;;5052181;28;19928;-79
2023/12/27 04:07:01;;;;;;;;;;;4.20;99.90;;;;;;5039425;28;19921;-78
2023/12/27 04:09:47;;;;;;;;;;;4.20;99.90;;;;;;5046720;28;19959;-79
2023/12/27 04:12:33;;;;;;;;;;;4.10;99.90;;;;;;5027880;28;19928;-78
2023/12/27 04:15:19;;;;;;;;;;;4.10;99.90;;;;;;5032652;28;19917;-78
2023/12/27 04:18:07;;;;;;;;;;;4.10;99.90;;;;;;5038631;28;20135;-78
2023/12/27 04:20:52;;;;;;;;;;;4.10;99.90;;;;;;5054350;28;19921;-78
2023/12/27 04:23:39;;;;;;;;;;;4.10;99.90;;;;;;5037512;28;20287;-78
2023/12/27 04:26:24;;;;;;;;;;;4.10;99.90;;;;;;5051381;28;19923;-78
2023/12/27 04:29:10;;;;;;;;;;;4.20;99.90;;;;;;5033904;28;20008;-78
2023/12/27 04:31:56;;;;;;;;;;;4.10;99.90;;;;;;5036526;28;19917;-78
2023/12/27 04:34:42;;;;;;;;;;;4.10;99.90;;;;;;5042827;28;20352;-78
2023/12/27 04:37:28;;;;;;;;;;;4.10;99.90;;;;;;5057650;28;19969;-78
2023/12/27 04:40:14;;;;;;;;;;;4.00;99.90;;;;;;5056922;28;20280;-79
2023/12/27 04:43:01;;;;;;;;;;;4.00;99.90;;;;;;5057090;28;20569;-78
2023/12/27 04:45:48;;;;;;;;;;;3.90;99.90;;;;;;5054194;28;19924;-78
2023/12/27 04:48:34;;;;;;;;;;;3.90;99.90;;;;;;5054403;28;19917;-78
2023/12/27 04:51:20;;;;;;;;;;;3.80;99.90;;;;;;5044270;28;19994;-78
2023/12/27 04:54:06;;;;;;;;;;;3.70;99.90;;;;;;5056620;28;19924;-78
2023/12/27 04:56:54;;;;;;;;;;;3.70;99.90;;;;;;5023422;28;19932;-78
2023/12/27 04:59:40;;;;;;;;;;;3.70;99.90;;;;;;5049195;28;19912;-78
2023/12/27 05:02:26;;;;;;;;;;;3.60;99.90;;;;;;5040936;28;20241;-78
2023/12/27 05:05:12;;;;;;;;;;;3.60;99.90;;;;;;5055647;28;19916;-78
2023/12/27 05:07:58;;;;;;;;;;;3.50;99.90;;;;;;5047130;28;19916;-78
2023/12/27 05:10:44;;;;;;;;;;;3.50;99.90;;;;;;5041836;28;19996;-78
2023/12/27 05:13:30;;;;;;;;;;;3.50;99.90;;;;;;5049233;28;19952;-78
2023/12/27 05:16:16;;;;;;;;;;;3.50;99.90;;;;;;5023090;28;19924;-78
2023/12/27 05:19:03;;;;;;;;;;;3.50;99.90;;;;;;5051105;28;19986;-78
2023/12/27 05:21:49;;;;;;;;;;;3.60;99.90;;;;;;5054965;28;19917;-78
2023/12/27 05:24:35;;;;;;;;;;;3.60;99.90;;;;;;5050186;28;20353;-78
2023/12/27 05:27:21;;;;;;;;;;;3.60;99.90;;;;;;5031726;28;19921;-78
2023/12/27 05:30:09;;;;;;;;;;;3.60;99.90;;;;;;5041440;28;19948;-78
2023/12/27 05:32:55;;;;;;;;;;;3.50;99.90;;;;;;5046228;28;19916;-77
2023/12/27 05:35:41;;;;;;;;;;;3.50;99.90;;;;;;5047570;28;19928;-78
2023/12/27 05:38:27;;;;;;;;;;;3.40;99.90;;;;;;5035765;28;19913;-78
2023/12/27 05:41:13;;;;;;;;;;;3.40;99.90;;;;;;5054099;28;19925;-78
2023/12/27 05:43:59;;;;;;;;;;;3.40;99.90;;;;;;5036292;28;19921;-78
2023/12/27 05:46:45;;;;;;;;;;;3.40;99.90;;;;;;5037364;28;20623;-78
2023/12/27 05:49:32;;;;;;;;;;;3.40;99.90;;;;;;5034443;28;19928;-78
2023/12/27 05:52:18;;;;;;;;;;;3.40;99.90;;;;;;5053669;28;19916;-79
2023/12/27 05:55:05;;;;;;;;;;;3.40;99.90;;;;;;5030569;28;19917;-78
2023/12/27 05:57:51;;;;;;;;;;;3.40;99.90;;;;;;5028293;28;19917;-78
2023/12/27 06:00:37;;;;;;;;;;;3.40;99.90;;;;;;5055871;28;19920;-79
2023/12/27 06:03:23;;;;;;;;;;;3.40;99.90;;;;;;5042668;28;20348;-78
2023/12/27 06:06:09;;;;;;;;;;;3.40;99.90;;;;;;5042141;28;19923;-78
2023/12/27 06:08:55;;;;;;;;;;;3.40;99.90;;;;;;5055973;28;20307;-78
2023/12/27 06:11:41;;;;;;;;;;;3.40;99.90;;;;;;5052233;28;19924;-78
2023/12/27 06:14:27;;;;;;;;;;;3.40;99.90;;;;;;5046975;28;19912;-78
2023/12/27 06:17:12;;;;;;;;;;;3.40;99.90;;;;;;5040492;28;19973;-79
2023/12/27 06:19:58;;;;;;;;;;;3.40;99.90;;;;;;5028495;28;19943;-78
2023/12/27 06:22:44;;;;;;;;;;;3.40;99.90;;;;;;5053152;28;19939;-78
2023/12/27 06:25:30;;;;;;;;;;;3.30;99.90;;;;;;5045950;28;19913;-78
2023/12/27 06:28:16;;;;;;;;;;;3.40;99.90;;;;;;5054805;28;20010;-78
2023/12/27 06:31:02;;;;;;;;;;;3.40;99.90;;;;;;5053665;28;20300;-78
2023/12/27 06:33:48;;;;;;;;;;;3.40;99.90;;;;;;5044628;28;19963;-78
2023/12/27 06:36:34;;;;;;;;;;;3.40;99.90;;;;;;5032211;28;19921;-78
2023/12/27 06:39:21;;;;;;;;;;;3.40;99.90;;;;;;5068074;28;19963;-78
2023/12/27 06:42:07;;;;;;;;;;;3.40;99.90;;;;;;5039440;28;19921;-78
2023/12/27 06:44:54;;;;;;;;;;;3.40;99.90;;;;;;5040755;28;20320;-79
2023/12/27 06:47:39;;;;;;;;;;;3.40;99.90;;;;;;5040986;28;19927;-78
2023/12/27 06:50:26;;;;;;;;;;;3.40;99.90;;;;;;5038975;28;19967;-78
2023/12/27 06:53:12;;;;;;;;;;;3.40;99.90;;;;;;5035883;28;19924;-78
2023/12/27 06:55:59;;;;;;;;;;;3.40;99.90;;;;;;5049990;28;20284;-78
2023/12/27 06:58:45;;;;;;;;;;;3.50;99.90;;;;;;5027081;28;19944;-78
2023/12/27 07:01:31;;;;;;;;;;;3.50;99.90;;;;;;5054526;28;20368;-78
2023/12/27 07:04:17;;;;;;;;;;;3.50;99.90;;;;;;5052813;28;19913;-78
2023/12/27 07:07:03;;;;;;;;;;;3.50;99.90;;;;;;5051546;28;19916;-78
2023/12/27 07:09:49;;;;;;;;;;;3.50;99.90;;;;;;5040199;28;19955;-79
2023/12/27 07:12:35;;;;;;;;;;;3.50;99.90;;;;;;5050942;28;19917;-78
2023/12/27 07:15:21;;;;;;;;;;;3.50;99.90;;;;;;5030795;28;20215;-78
2023/12/27 07:18:08;;;;;;;;;;;3.50;99.90;;;;;;5053927;28;19946;-78
2023/12/27 07:20:54;;;;;;;;;;;3.50;99.90;;;;;;5026576;28;20018;-78
2023/12/27 07:23:40;;;;;;;;;;;3.50;99.90;;;;;;5052984;28;19970;-78
2023/12/27 07:26:26;;;;;;;;;;;3.50;99.90;;;;;;5053831;28;19943;-78
2023/12/27 07:29:11;;;;;;;;;;;3.50;99.90;;;;;;5046602;28;19921;-78
2023/12/27 07:31:58;;;;;;;;;;;3.50;99.90;;;;;;5037877;28;19916;-78
2023/12/27 07:34:43;;;;;;;;;;;3.50;99.90;;;;;;5033007;28;19917;-78
2023/12/27 07:37:30;;;;;;;;;;;3.50;99.90;;;;;;5035442;28;19963;-78
2023/12/27 07:40:16;;;;;;;;;;;3.50;99.90;;;;;;5032990;28;19928;-78
2023/12/27 07:43:03;;;;;;;;;;;3.50;99.90;;;;;;5044469;28;20264;-79
2023/12/27 07:45:49;;;;;;;;;;;3.40;99.90;;;;;;5034965;28;19928;-78
2023/12/27 07:48:35;;;;;;;;;;;3.40;99.90;;;;;;5049008;28;19917;-79
2023/12/27 07:51:21;;;;;;;;;;;3.40;99.90;;;;;;5035380;28;19924;-78
2023/12/27 07:54:07;;;;;;;;;;;3.40;99.90;;;;;;5020945;28;19928;-78
2023/12/27 07:56:53;;;;;;;;;;;3.30;99.90;;;;;;5031699;28;19917;-79
2023/12/27 07:59:39;;;;;;;;;;;3.30;99.90;;;;;;5052485;28;19917;-78
2023/12/27 08:02:25;;;;;;;;;;;3.40;99.90;;;;;;5049142;28;19917;-78
2023/12/27 08:05:11;;;;;;;;;;;3.40;99.90;;;;;;5043393;28;19920;-78
2023/12/27 08:07:57;;;;;;;;;;;3.40;99.90;;;;;;5019527;28;19913;-79
2023/12/27 08:10:43;;;;;;;;;;;3.40;99.90;;;;;;5048178;28;19924;-78
2023/12/27 08:13:29;;;;;;;;;;;3.40;99.90;;;;;;5033837;28;20043;-78
2023/12/27 08:16:15;;;;;;;;;;;3.50;99.90;;;;;;5042769;28;19916;-78
2023/12/27 08:19:01;;;;;;;;;;;3.40;99.90;;;;;;5039735;28;19927;-78
2023/12/27 08:21:47;;;;;;;;;;;3.40;99.90;;;;;;5039332;28;19924;-78
2023/12/27 08:24:33;;;;;;;;;;;3.50;99.90;;;;;;5052619;28;20414;-77
2023/12/27 08:27:19;;;;;;;;;;;3.50;99.90;;;;;;5052261;28;19916;-78
2023/12/27 08:30:05;;;;;;;;;;;3.50;99.90;;;;;;5039934;28;19916;-78
2023/12/27 08:32:52;;;;;;;;;;;3.50;99.90;;;;;;5049597;28;19924;-78
2023/12/27 08:35:39;;;;;;;;;;;3.50;99.90;;;;;;5052158;28;19967;-78
2023/12/27 08:38:25;;;;;;;;;;;3.50;99.90;;;;;;5039182;28;19916;-78
2023/12/27 08:41:11;;;;;;;;;;;3.50;99.90;;;;;;5034456;28;19948;-78
2023/12/27 08:43:57;;;;;;;;;;;3.50;99.90;;;;;;5033864;28;19917;-78
2023/12/27 08:46:42;;;;;;;;;;;3.60;99.90;;;;;;5033048;28;19949;-78
2023/12/27 08:49:28;;;;;;;;;;;3.60;99.90;;;;;;5034235;28;19928;-78
2023/12/27 08:52:14;;;;;;;;;;;3.60;99.90;;;;;;5039858;28;19920;-78
2023/12/27 08:55:02;;;;;;;;;;;3.60;99.90;;;;;;5033983;28;19944;-78
2023/12/27 08:57:48;;;;;;;;;;;3.60;99.90;;;;;;5039961;28;19971;-78
2023/12/27 09:00:34;;;;;;;;;;;3.70;99.90;;;;;;5036687;28;20054;-78
2023/12/27 09:03:20;;;;;;;;;;;3.80;99.90;;;;;;5046754;28;19924;-77
2023/12/27 09:06:07;;;;;;;;;;;3.80;99.90;;;;;;5053051;28;19987;-78
2023/12/27 09:08:53;;;;;;;;;;;3.90;99.90;;;;;;5055381;28;19966;-78
2023/12/27 09:11:39;;;;;;;;;;;3.90;99.90;;;;;;5054397;28;19924;-78
2023/12/27 09:14:25;;;;;;;;;;;4.00;99.90;;;;;;5042517;28;19916;-78
2023/12/27 09:17:11;;;;;;;;;;;4.00;99.90;;;;;;5033672;28;20265;-78
2023/12/27 09:19:57;;;;;;;;;;;4.10;99.90;;;;;;5049739;28;19944;-78
2023/12/27 09:22:43;;;;;;;;;;;4.20;99.90;;;;;;5040574;28;19917;-79
2023/12/27 09:25:29;;;;;;;;;;;4.30;99.90;;;;;;5020689;28;20617;-78
2023/12/27 09:28:15;;;;;;;;;;;4.30;99.90;;;;;;5052720;28;19919;-78
2023/12/27 09:31:01;;;;;;;;;;;4.40;99.90;;;;;;5045227;28;19917;-78
2023/12/27 09:33:47;;;;;;;;;;;4.50;99.90;;;;;;5042466;28;19913;-77
2023/12/27 09:36:33;;;;;;;;;;;4.60;99.90;;;;;;5043442;28;19936;-77
2023/12/27 09:39:19;;;;;;;;;;;4.60;99.90;;;;;;5036285;28;20011;-78
2023/12/27 09:42:05;;;;;;;;;;;4.70;99.90;;;;;;5023359;28;20027;-78
2023/12/27 09:44:51;;;;;;;;;;;4.70;99.90;;;;;;5055242;28;19916;-78
2023/12/27 09:47:37;;;;;;;;;;;4.80;99.90;;;;;;5031265;28;19921;-78
2023/12/27 09:50:23;;;;;;;;;;;4.80;99.90;;;;;;5044320;28;19917;-78
2023/12/27 09:53:10;;;;;;;;;;;4.90;99.90;;;;;;5036852;28;20341;-77
2023/12/27 09:55:56;;;;;;;;;;;4.90;99.90;;;;;;5039765;28;20314;-77
2023/12/27 09:58:42;;;;;;;;;;;4.80;99.90;;;;;;5048751;28;19920;-78
2023/12/27 10:01:29;;;;;;;;;;;4.80;99.90;;;;;;5022005;28;19971;-78
2023/12/27 10:04:25;;;;;;;;;;;4.80;99.90;;;;;;5041173;28;19913;-78
2023/12/27 10:07:12;;;;;;;;;;;4.80;99.90;;;;;;5055709;28;19917;-79
2023/12/27 10:09:58;;;;;;;;;;;4.90;99.90;;;;;;5053492;28;19913;-75
2023/12/27 10:12:44;;;;;;;;;;;4.90;99.90;;;;;;5043510;28;19949;-76
2023/12/27 10:15:30;;;;;;;;;;;4.90;99.90;;;;;;5045774;28;19917;-75
2023/12/27 10:18:16;;;;;;;;;;;5.00;99.90;;;;;;5047947;28;19917;-74
2023/12/27 10:21:02;;;;;;;;;;;5.10;99.90;;;;;;5031569;28;19940;-74
2023/12/27 10:23:48;;;;;;;;;;;5.20;99.90;;;;;;5044264;28;19913;-74
2023/12/27 10:26:37;;;;;;;;;;;5.30;99.90;;;;;;5043144;28;20321;-74
2023/12/27 10:29:22;;;;;;;;;;;5.30;99.90;;;;;;5040271;28;19921;-75
2023/12/27 10:32:08;;;;;;;;;;;5.40;99.90;;;;;;5047857;28;19913;-75
2023/12/27 10:34:57;;;;;;;;;;;5.40;99.90;;;;;;5047712;28;20000;-75
2023/12/27 10:37:44;;;;;;;;;;;5.50;99.90;;;;;;5055137;28;19924;-74
2023/12/27 10:40:30;;;;;;;;;;;5.60;99.90;;;;;;5051331;28;19924;-74
2023/12/27 10:43:16;;;;;;;;;;;5.70;99.90;;;;;;5023391;28;19913;-74
2023/12/27 10:46:10;;;;;;;;;;;5.70;99.90;;;;;;5052759;28;20029;-75
2023/12/27 10:48:56;;;;;;;;;;;5.80;99.90;;;;;;5048372;28;19917;-74
2023/12/27 10:51:42;;;;;;;;;;;5.80;99.90;;;;;;5027571;28;19932;-75
2023/12/27 10:54:28;;;;;;;;;;;5.90;99.90;;;;;;5046215;28;19916;-74
2023/12/27 10:57:15;;;;;;;;;;;5.90;99.90;;;;;;5023052;28;19952;-75
2023/12/27 11:00:03;;;;;;;;;;;6.00;99.90;;;;;;5047491;28;19966;-75
2023/12/27 11:02:49;;;;;;;;;;;6.00;99.90;;;;;;5042310;28;19987;-74
2023/12/27 11:05:35;;;;;;;;;;;6.00;99.90;;;;;;5034976;28;19998;-75
2023/12/27 11:08:21;;;;;;;;;;;6.10;99.90;;;;;;5042732;28;19913;-74
2023/12/27 11:11:07;;;;;;;;;;;6.20;99.90;;;;;;5052653;28;20003;-75
2023/12/27 11:13:53;;;;;;;;;;;6.20;99.90;;;;;;5034669;28;19952;-74
2023/12/27 11:16:40;;;;;;;;;;;6.30;99.90;;;;;;5039947;28;19920;-74
2023/12/27 11:19:26;;;;;;;;;;;6.30;99.90;;;;;;5050868;28;19948;-74
2023/12/27 11:22:12;;;;;;;;;;;6.40;99.90;;;;;;5047863;28;19925;-75
2023/12/27 11:24:59;;;;;;;;;;;6.40;99.90;;;;;;5038990;28;19978;-74
2023/12/27 11:27:45;;;;;;;;;;;6.50;99.90;;;;;;5036824;28;20376;-77
2023/12/27 11:30:32;;;;;;;;;;;6.50;99.90;;;;;;5047252;28;19974;-76
2023/12/27 11:33:27;;;;;;;;;;;6.60;99.90;;;;;;5025756;28;19929;-76
2023/12/27 11:36:13;;;;;;;;;;;6.60;99.90;;;;;;5036678;28;19932;-76
2023/12/27 11:39:00;;;;;;;;;;;6.60;99.90;;;;;;5052072;28;19913;-76
2023/12/27 11:41:49;;;;;;;;;;;6.60;99.90;;;;;;5047920;28;19925;-75
2023/12/27 11:44:41;;;;;;;;;;;6.70;99.90;;;;;;5043956;28;19917;-76
2023/12/27 11:47:27;;;;;;;;;;;6.70;99.90;;;;;;5051910;28;20333;-76
2023/12/27 11:50:16;;;;;;;;;;;6.70;99.90;;;;;;5051224;28;19913;-76
2023/12/27 11:53:02;;;;;;;;;;;6.60;99.90;;;;;;5039906;28;19917;-76
2023/12/27 11:55:50;;;;;;;;;;;6.70;99.90;;;;;;5046050;28;19919;-76
2023/12/27 11:58:36;;;;;;;;;;;6.70;99.90;;;;;;5053717;28;19913;-76
2023/12/27 12:01:28;;;;;;;;;;;6.60;99.90;;;;;;5050945;28;19975;-76
2023/12/27 12:04:32;;;;;;;;;;;6.60;99.90;;;;;;5051828;28;19943;-76
2023/12/27 12:07:24;;;;;;;;;;;6.60;99.90;;;;;;5035855;28;20331;-77
2023/12/27 12:10:26;;;;;;;;;;;6.60;99.90;;;;;;5054009;28;19943;-76
2023/12/27 12:13:12;;;;;;;;;;;6.60;99.90;;;;;;5037205;28;20129;-76
2023/12/27 12:15:58;;;;;;;;;;;6.60;99.90;;;;;;5053197;28;20310;-76
2023/12/27 12:18:43;;;;;;;;;;;6.60;99.90;;;;;;5053231;28;19913;-76
2023/12/27 12:21:29;;;;;;;;;;;6.60;99.90;;;;;;5046898;28;20015;-76
2023/12/27 12:24:15;;;;;;;;;;;6.60;99.90;;;;;;5038127;28;19916;-76
2023/12/27 12:27:02;;;;;;;;;;;6.60;99.90;;;;;;5030531;28;19913;-76
2023/12/27 12:29:47;;;;;;;;;;;6.60;99.90;;;;;;5036436;28;19913;-76
2023/12/27 12:32:38;;;;;;;;;;;6.70;99.90;;;;;;5043983;28;19928;-76
2023/12/27 12:35:24;;;;;;;;;;;6.70;99.90;;;;;;5051415;28;19916;-76
2023/12/27 12:38:10;;;;;;;;;;;6.60;99.90;;;;;;5048332;28;19924;-76
2023/12/27 12:40:56;;;;;;;;;;;6.70;99.90;;;;;;5036496;28;19939;-76
2023/12/27 12:43:43;;;;;;;;;;;6.80;99.90;;;;;;5048817;28;19927;-76
2023/12/27 12:46:29;;;;;;;;;;;6.70;99.90;;;;;;5052637;28;19999;-76
2023/12/27 12:49:14;;;;;;;;;;;6.80;99.90;;;;;;5046700;28;19920;-76
2023/12/27 12:52:04;;;;;;;;;;;6.80;99.90;;;;;;5053197;28;19916;-76
2023/12/27 12:54:50;;;;;;;;;;;6.80;99.90;;;;;;5046343;28;19927;-75
2023/12/27 12:57:38;;;;;;;;;;;6.80;99.90;;;;;;5041891;28;19920;-76
2023/12/27 13:00:24;;;;;;;;;;;6.80;99.90;;;;;;5036597;28;20011;-77
2023/12/27 13:03:10;;;;;;;;;;;6.90;99.90;;;;;;5047468;28;19995;-76
2023/12/27 13:05:56;;;;;;;;;;;6.80;99.90;;;;;;5055286;28;19927;-76
2023/12/27 13:08:42;;;;;;;;;;;6.80;99.90;;;;;;5039084;28;19924;-75
2023/12/27 13:11:29;;;;;;;;;;;6.80;99.90;;;;;;5055927;28;19913;-76
2023/12/27 13:14:15;;;;;;;;;;;6.80;99.90;;;;;;5056611;28;19913;-77
2023/12/27 13:17:02;;;;;;;;;;;6.80;99.90;;;;;;5033722;28;19921;-76
2023/12/27 13:19:47;;;;;;;;;;;6.80;99.90;;;;;;5051294;28;20264;-76
2023/12/27 13:22:33;;;;;;;;;;;6.80;99.90;;;;;;5044790;28;19917;-76
2023/12/27 13:25:20;;;;;;;;;;;6.80;99.90;;;;;;5049106;28;19924;-76
2023/12/27 13:28:06;;;;;;;;;;;6.80;99.90;;;;;;5055758;28;19917;-76
2023/12/27 13:30:55;;;;;;;;;;;6.80;99.90;;;;;;5056592;28;19928;-77
2023/12/27 13:33:41;;;;;;;;;;;6.90;99.90;;;;;;5041736;28;19917;-76
2023/12/27 13:36:28;;;;;;;;;;;6.80;99.90;;;;;;5051387;28;19927;-76
2023/12/27 13:39:14;;;;;;;;;;;6.80;99.90;;;;;;5056109;28;19913;-76
2023/12/27 13:42:00;;;;;;;;;;;6.80;99.90;;;;;;5035447;28;19925;-76
2023/12/27 13:44:47;;;;;;;;;;;6.80;99.90;;;;;;5047690;28;19923;-76
2023/12/27 13:47:33;;;;;;;;;;;6.80;99.90;;;;;;5051947;28;19951;-77
2023/12/27 13:50:20;;;;;;;;;;;6.80;99.90;;;;;;5036643;28;19913;-77
2023/12/27 13:53:08;;;;;;;;;;;6.70;99.90;;;;;;5040418;28;19944;-76
2023/12/27 13:55:55;;;;;;;;;;;6.70;99.90;;;;;;5036165;28;20257;-76
2023/12/27 13:58:43;;;;;;;;;;;6.70;99.90;;;;;;5051266;28;20241;-76
2023/12/27 14:01:29;;;;;;;;;;;6.80;99.90;;;;;;5024593;28;19928;-76
2023/12/27 14:04:15;;;;;;;;;;;6.70;99.90;;;;;;5041077;28;19990;-76
2023/12/27 14:07:03;;;;;;;;;;;6.70;99.90;;;;;;5039790;28;19920;-76
2023/12/27 14:09:49;;;;;;;;;;;6.70;99.90;;;;;;5034893;28;19913;-76
2023/12/27 14:12:41;;;;;;;;;;;6.70;99.90;;;;;;5045906;28;19991;-76
2023/12/27 14:15:27;;;;;;;;;;;6.70;99.90;;;;;;5038448;28;19977;-75
2023/12/27 14:18:14;;;;;;;;;;;6.80;99.90;;;;;;5029673;28;19925;-74
2023/12/27 14:21:01;;;;;;;;;;;6.90;99.90;;;;;;5050625;28;20384;-76
2023/12/27 14:23:47;;;;;;;;;;;7.00;99.90;;;;;;5053925;28;20014;-76
2023/12/27 14:26:33;;;;;;;;;;;6.90;99.90;;;;;;5048248;28;19942;-77
2023/12/27 14:29:19;;;;;;;;;;;6.90;99.90;;;;;;5025693;28;19962;-76
2023/12/27 14:32:08;;;;;;;;;;;6.80;99.90;;;;;;5040032;28;19913;-76
2023/12/27 14:34:54;;;;;;;;;;;6.80;99.90;;;;;;5037927;28;19943;-77
2023/12/27 14:37:40;;;;;;;;;;;6.80;99.90;;;;;;5029440;28;20529;-76
2023/12/27 14:40:26;;;;;;;;;;;6.80;99.90;;;;;;5051833;28;19916;-76
2023/12/27 14:43:15;;;;;;;;;;;6.80;99.90;;;;;;5024328;28;19916;-76
2023/12/27 14:46:01;;;;;;;;;;;6.80;99.90;;;;;;5035443;28;20349;-76
2023/12/27 14:48:46;;;;;;;;;;;6.80;99.90;;;;;;5044978;28;20253;-76
2023/12/27 14:51:33;;;;;;;;;;;6.80;99.90;;;;;;5041445;28;19917;-77
2023/12/27 14:54:19;;;;;;;;;;;6.80;99.90;;;;;;5039205;28;20222;-76
2023/12/27 14:57:05;;;;;;;;;;;6.80;99.90;;;;;;5051159;28;20337;-76
2023/12/27 14:59:51;;;;;;;;;;;6.80;99.90;;;;;;5038957;28;20471;-76
2023/12/27 15:02:38;;;;;;;;;;;6.80;99.90;;;;;;5039419;28;19920;-75
2023/12/27 15:05:26;;;;;;;;;;;6.80;99.90;;;;;;5039848;28;20340;-76
2023/12/27 15:08:12;;;;;;;;;;;6.80;99.90;;;;;;5025705;28;20252;-76
2023/12/27 15:10:58;;;;;;;;;;;6.80;99.90;;;;;;5038847;28;19966;-76
2023/12/27 15:13:44;;;;;;;;;;;6.80;99.90;;;;;;5037987;28;19916;-77
2023/12/27 15:16:29;;;;;;;;;;;6.80;99.90;;;;;;5040269;28;19924;-76
2023/12/27 15:19:18;;;;;;;;;;;6.80;99.90;;;;;;5036777;28;20008;-77
2023/12/27 15:22:04;;;;;;;;;;;6.80;99.90;;;;;;5037924;28;20359;-76
2023/12/27 15:24:50;;;;;;;;;;;6.80;99.90;;;;;;5051242;28;20284;-76
2023/12/27 15:27:39;;;;;;;;;;;6.80;99.90;;;;;;5050685;28;20253;-77
2023/12/27 15:30:24;;;;;;;;;;;6.70;99.90;;;;;;5039210;28;19948;-76
2023/12/27 15:33:10;;;;;;;;;;;6.80;99.90;;;;;;5052484;28;19991;-76
2023/12/27 15:35:57;;;;;;;;;;;6.80;99.90;;;;;;5054053;28;20356;-77
2023/12/27 15:38:45;;;;;;;;;;;6.80;99.90;;;;;;5043194;28;19932;-76
2023/12/27 15:41:31;;;;;;;;;;;6.80;99.90;;;;;;5050171;28;19971;-76
2023/12/27 15:44:22;;;;;;;;;;;6.80;99.90;;;;;;5035531;28;19917;-76
2023/12/27 15:47:12;;;;;;;;;;;6.80;99.90;;;;;;5049294;28;19948;-76
2023/12/27 15:49:58;;;;;;;;;;;6.80;99.90;;;;;;5026400;28;19944;-77
2023/12/27 15:52:46;;;;;;;;;;;6.80;99.90;;;;;;5036167;28;20325;-75
2023/12/27 15:55:32;;;;;;;;;;;6.80;99.90;;;;;;5038409;28;19920;-77
2023/12/27 15:58:18;;;;;;;;;;;6.80;99.90;;;;;;5040836;28;19921;-76
2023/12/27 16:01:03;;;;;;;;;;;6.80;99.90;;;;;;5046616;28;19932;-76
2023/12/27 16:03:50;;;;;;;;;;;6.80;99.90;;;;;;5037379;28;19916;-77
2023/12/27 16:06:37;;;;;;;;;;;6.80;99.90;;;;;;5051723;28;19917;-76
2023/12/27 16:09:23;;;;;;;;;;;6.80;99.90;;;;;;5039475;28;19925;-76
2023/12/27 16:12:11;;;;;;;;;;;6.90;99.90;;;;;;5028935;28;19939;-76
2023/12/27 16:14:57;;;;;;;;;;;6.80;99.90;;;;;;5061140;28;19917;-76
2023/12/27 16:17:44;;;;;;;;;;;6.80;99.90;;;;;;5041579;28;19916;-76
2023/12/27 16:20:30;;;;;;;;;;;6.80;99.90;;;;;;5030842;28;20377;-76
2023/12/27 16:23:16;;;;;;;;;;;6.90;99.90;;;;;;5027838;28;19974;-76